UMGG

Gomel Airport

Gomel, Belarus
TAF UMGG 211700Z 2118/2218 33005MPS 6000 BKN008 TEMPO 2118/2121 VRB14MPS 1200 TSRA BR SQ BKN004 BKN025CB TEMPO 2121/2205 0400 FG VV002 TEMPO 2205/2218 VRB14MPS 2000 TSRA SQ BKN005 BKN025CB
Issued Valid From Valid To
Jul-21 @ 17:00 UTC
(6 hours ago)
Jul-21 @ 18:00 UTC
(5 hours ago)
Jul-22 @ 18:00 UTC
(in 19 hours)
Jul-21 @ 18:00 to Jul-22 @ 18:00
TAF UMGG 211700Z 2118/2218 33005MPS 6000 BKN008
Wind Visibility Clouds
330° at 10 knots 6,003 meters
  • Broken at 800' AGL
Expired Click to View Jul-21 @ 18:00 to Jul-21 @ 21:00
TEMPO 2118/2121 VRB14MPS 1200 TSRA BR SQ BKN004 BKN025CB
Wind Visibility Clouds Conditions
Variable at 27 knots 1,207 meters
  • Broken at 400' AGL
  • Broken at 2,500' AGL
  • Thunderstorm
  • Rain
  • Mist
  • Squalls
Temporary Jul-21 @ 21:00 to Jul-22 @ 05:00
TEMPO 2121/2205 0400 FG VV002
Visibility Clouds Conditions
402 meters
  • Vertical visibility at 200' AGL
  • Fog
Temporary Jul-22 @ 05:00 to Jul-22 @ 18:00
TEMPO 2205/2218 VRB14MPS 2000 TSRA SQ BKN005 BKN025CB
Wind Visibility Clouds Conditions
Variable at 27 knots 1,996 meters
  • Broken at 500' AGL
  • Broken at 2,500' AGL
  • Thunderstorm
  • Rain
  • Squalls
TAF UMGG 211700Z 2118/2218 33005MPS 6000 BKN008 TEMPO 2118/2121 VRB14MPS 1200 TSRA BR SQ BKN004 BKN025CB TEMPO 2121/2205 0400 FG VV002 TEMPO 2205/2218 VRB14MPS 2000 TSRA SQ BKN005 BKN025CB
Issued Jul-21 @ 17:00 UTC
(6 hours ago)
Valid From Jul-21 @ 18:00 UTC
(5 hours ago)
Valid To Jul-22 @ 18:00 UTC
(in 19 hours)
Jul-21 @ 18:00 - Jul-22 @ 18:00
Wind Visibility
330° at 10 knots 6,003 meters
Clouds
  • Broken at 800' AGL
Jul-21 @ 18:00 - Jul-21 @ 21:00
Wind Visibility
Variable at 27 knots 1,207 meters
Clouds
  • Broken at 400' AGL
  • Broken at 2,500' AGL
Conditions
  • Thunderstorm
  • Rain
  • Mist
  • Squalls
Temporary Jul-21 @ 21:00 - Jul-22 @ 05:00
Clouds
  • Vertical visibility at 200' AGL
Conditions
  • Fog
Temporary Jul-22 @ 05:00 - Jul-22 @ 18:00
Wind Visibility
Variable at 27 knots 1,996 meters
Clouds
  • Broken at 500' AGL
  • Broken at 2,500' AGL
Conditions
  • Thunderstorm
  • Rain
  • Squalls